sensor_id;sensor_type;location;lat;lon;timestamp;pressure;altitude;pressure_sealevel;temperature;humidity
54369;BME280;40266;52.434;17.056;2023-01-28T00:02:34;101585.44;;;-1.88;92.15
54369;BME280;40266;52.434;17.056;2023-01-28T00:17:44;101597.66;;;-1.91;91.84
54369;BME280;40266;52.434;17.056;2023-01-28T00:29:28;101594.84;;;-1.92;91.21
54369;BME280;40266;52.434;17.056;2023-01-28T00:32:23;101594.15;;;-1.93;91.14
54369;BME280;40266;52.434;17.056;2023-01-28T00:42:35;101590.41;;;-1.96;91.01
54369;BME280;40266;52.434;17.056;2023-01-28T00:45:58;101596.08;;;-1.95;91.03
54369;BME280;40266;52.434;17.056;2023-01-28T00:49:51;101598.48;;;-1.95;91.08
54369;BME280;40266;52.434;17.056;2023-01-28T01:04:50;101598.36;;;-2.01;90.39
54369;BME280;40266;52.434;17.056;2023-01-28T01:08:41;101600.86;;;-2.02;90.46
54369;BME280;40266;52.434;17.056;2023-01-28T01:12:05;101600.13;;;-2.04;90.38
54369;BME280;40266;52.434;17.056;2023-01-28T01:15:33;101597.20;;;-2.04;90.51
54369;BME280;40266;52.434;17.056;2023-01-28T01:18:55;101601.64;;;-2.04;90.31
54369;BME280;40266;52.434;17.056;2023-01-28T01:22:03;101598.31;;;-2.06;90.37
54369;BME280;40266;52.434;17.056;2023-01-28T01:29:00;101602.86;;;-2.07;90.33
54369;BME280;40266;52.434;17.056;2023-01-28T01:36:11;101599.16;;;-2.09;90.21
54369;BME280;40266;52.434;17.056;2023-01-28T01:39:16;101595.65;;;-2.11;90.26
54369;BME280;40266;52.434;17.056;2023-01-28T01:42:54;101604.34;;;-2.12;90.20
54369;BME280;40266;52.434;17.056;2023-01-28T01:54:00;101587.70;;;-2.13;89.84
54369;BME280;40266;52.434;17.056;2023-01-28T01:57:16;101586.45;;;-2.14;89.88
54369;BME280;40266;52.434;17.056;2023-01-28T02:01:11;101584.45;;;-2.13;90.22
54369;BME280;40266;52.434;17.056;2023-01-28T02:04:31;101582.11;;;-2.15;89.96
54369;BME280;40266;52.434;17.056;2023-01-28T02:07:17;101583.92;;;-2.17;89.91
54369;BME280;40266;52.434;17.056;2023-01-28T02:10:01;101586.02;;;-2.19;89.88
54369;BME280;40266;52.434;17.056;2023-01-28T02:12:52;101588.70;;;-2.20;89.76
54369;BME280;40266;52.434;17.056;2023-01-28T02:15:41;101595.50;;;-2.21;89.65
54369;BME280;40266;52.434;17.056;2023-01-28T02:18:24;101592.69;;;-2.23;89.70
54369;BME280;40266;52.434;17.056;2023-01-28T02:24:28;101590.92;;;-2.24;89.80
54369;BME280;40266;52.434;17.056;2023-01-28T02:27:26;101596.37;;;-2.24;89.80
54369;BME280;40266;52.434;17.056;2023-01-28T02:30:21;101600.24;;;-2.26;90.02
54369;BME280;40266;52.434;17.056;2023-01-28T02:33:15;101601.96;;;-2.25;90.19
54369;BME280;40266;52.434;17.056;2023-01-28T02:36:27;101600.00;;;-2.27;90.01
54369;BME280;40266;52.434;17.056;2023-01-28T02:39:12;101599.92;;;-2.29;90.24
54369;BME280;40266;52.434;17.056;2023-01-28T02:42:10;101598.92;;;-2.31;90.10
54369;BME280;40266;52.434;17.056;2023-01-28T02:44:55;101597.77;;;-2.34;90.18
54369;BME280;40266;52.434;17.056;2023-01-28T02:47:38;101600.27;;;-2.36;90.31
54369;BME280;40266;52.434;17.056;2023-01-28T02:50:48;101599.15;;;-2.38;90.14
54369;BME280;40266;52.434;17.056;2023-01-28T02:53:45;101597.75;;;-2.38;90.22
54369;BME280;40266;52.434;17.056;2023-01-28T02:56:38;101591.27;;;-2.41;89.96
54369;BME280;40266;52.434;17.056;2023-01-28T02:59:27;101593.42;;;-2.43;90.22
54369;BME280;40266;52.434;17.056;2023-01-28T03:05:32;101602.02;;;-2.42;90.22
54369;BME280;40266;52.434;17.056;2023-01-28T03:08:17;101611.22;;;-2.42;90.42
54369;BME280;40266;52.434;17.056;2023-01-28T03:11:19;101609.86;;;-2.42;90.43
54369;BME280;40266;52.434;17.056;2023-01-28T03:14:23;101605.55;;;-2.43;90.43
54369;BME280;40266;52.434;17.056;2023-01-28T03:17:32;101606.36;;;-2.44;90.55
54369;BME280;40266;52.434;17.056;2023-01-28T03:20:42;101609.60;;;-2.44;90.40
54369;BME280;40266;52.434;17.056;2023-01-28T03:24:02;101605.40;;;-2.46;90.45
54369;BME280;40266;52.434;17.056;2023-01-28T03:27:32;101611.09;;;-2.45;90.50
54369;BME280;40266;52.434;17.056;2023-01-28T03:30:46;101612.63;;;-2.48;90.24
54369;BME280;40266;52.434;17.056;2023-01-28T03:33:55;101607.89;;;-2.48;90.45
54369;BME280;40266;52.434;17.056;2023-01-28T03:36:58;101612.61;;;-2.49;90.35
54369;BME280;40266;52.434;17.056;2023-01-28T03:40:07;101617.96;;;-2.51;90.19
54369;BME280;40266;52.434;17.056;2023-01-28T03:42:50;101622.30;;;-2.50;90.67
54369;BME280;40266;52.434;17.056;2023-01-28T03:45:46;101621.77;;;-2.47;90.77
54369;BME280;40266;52.434;17.056;2023-01-28T03:48:33;101622.21;;;-2.48;90.42
54369;BME280;40266;52.434;17.056;2023-01-28T03:51:17;101620.61;;;-2.50;90.38
54369;BME280;40266;52.434;17.056;2023-01-28T03:54:00;101622.85;;;-2.49;90.59
54369;BME280;40266;52.434;17.056;2023-01-28T03:56:42;101621.66;;;-2.49;90.66
54369;BME280;40266;52.434;17.056;2023-01-28T03:59:25;101621.09;;;-2.47;90.87
54369;BME280;40266;52.434;17.056;2023-01-28T04:02:10;101622.48;;;-2.46;90.72
54369;BME280;40266;52.434;17.056;2023-01-28T04:04:54;101624.34;;;-2.47;90.66
54369;BME280;40266;52.434;17.056;2023-01-28T04:07:40;101628.25;;;-2.47;90.70
54369;BME280;40266;52.434;17.056;2023-01-28T04:10:35;101625.13;;;-2.48;90.47
54369;BME280;40266;52.434;17.056;2023-01-28T04:13:34;101630.69;;;-2.50;90.07
54369;BME280;40266;52.434;17.056;2023-01-28T04:16:17;101634.48;;;-2.52;90.11
54369;BME280;40266;52.434;17.056;2023-01-28T04:19:02;101634.95;;;-2.53;90.00
54369;BME280;40266;52.434;17.056;2023-01-28T04:21:46;101635.84;;;-2.56;89.82
54369;BME280;40266;52.434;17.056;2023-01-28T04:24:29;101635.52;;;-2.59;89.48
54369;BME280;40266;52.434;17.056;2023-01-28T04:27:12;101639.02;;;-2.61;89.73
54369;BME280;40266;52.434;17.056;2023-01-28T04:29:55;101640.55;;;-2.61;89.77
54369;BME280;40266;52.434;17.056;2023-01-28T04:32:49;101643.46;;;-2.61;89.77
54369;BME280;40266;52.434;17.056;2023-01-28T04:35:50;101637.17;;;-2.60;89.91
54369;BME280;40266;52.434;17.056;2023-01-28T04:38:54;101640.27;;;-2.60;89.95
54369;BME280;40266;52.434;17.056;2023-01-28T04:42:01;101638.43;;;-2.59;89.89
54369;BME280;40266;52.434;17.056;2023-01-28T04:44:59;101639.11;;;-2.59;89.95
54369;BME280;40266;52.434;17.056;2023-01-28T04:48:09;101638.90;;;-2.60;89.77
54369;BME280;40266;52.434;17.056;2023-01-28T04:51:21;101635.96;;;-2.60;89.87
54369;BME280;40266;52.434;17.056;2023-01-28T04:54:22;101636.39;;;-2.59;90.16
54369;BME280;40266;52.434;17.056;2023-01-28T04:57:06;101638.92;;;-2.56;90.26
54369;BME280;40266;52.434;17.056;2023-01-28T04:59:50;101636.20;;;-2.56;89.92
54369;BME280;40266;52.434;17.056;2023-01-28T05:02:33;101632.77;;;-2.56;89.92
54369;BME280;40266;52.434;17.056;2023-01-28T05:05:17;101628.86;;;-2.56;90.13
54369;BME280;40266;52.434;17.056;2023-01-28T05:08:26;101630.98;;;-2.54;90.12
54369;BME280;40266;52.434;17.056;2023-01-28T05:11:09;101633.40;;;-2.54;90.07
54369;BME280;40266;52.434;17.056;2023-01-28T05:13:53;101637.13;;;-2.55;89.95
54369;BME280;40266;52.434;17.056;2023-01-28T05:16:37;101635.70;;;-2.56;89.92
54369;BME280;40266;52.434;17.056;2023-01-28T05:19:20;101635.42;;;-2.54;90.06
54369;BME280;40266;52.434;17.056;2023-01-28T05:22:03;101639.46;;;-2.52;90.22
54369;BME280;40266;52.434;17.056;2023-01-28T05:24:55;101645.17;;;-2.51;90.16
54369;BME280;40266;52.434;17.056;2023-01-28T05:27:38;101648.44;;;-2.50;90.07
54369;BME280;40266;52.434;17.056;2023-01-28T05:30:21;101649.51;;;-2.50;89.98
54369;BME280;40266;52.434;17.056;2023-01-28T05:33:05;101648.44;;;-2.51;89.60
54369;BME280;40266;52.434;17.056;2023-01-28T05:35:48;101646.63;;;-2.53;89.66
54369;BME280;40266;52.434;17.056;2023-01-28T05:38:34;101651.27;;;-2.49;89.74
54369;BME280;40266;52.434;17.056;2023-01-28T05:41:17;101655.61;;;-2.48;89.81
54369;BME280;40266;52.434;17.056;2023-01-28T05:44:04;101660.86;;;-2.45;89.81
54369;BME280;40266;52.434;17.056;2023-01-28T05:47:03;101663.19;;;-2.43;89.89
54369;BME280;40266;52.434;17.056;2023-01-28T05:50:05;101667.83;;;-2.40;89.91
54369;BME280;40266;52.434;17.056;2023-01-28T05:52:58;101666.91;;;-2.37;89.94
54369;BME280;40266;52.434;17.056;2023-01-28T05:55:50;101667.20;;;-2.35;89.92
54369;BME280;40266;52.434;17.056;2023-01-28T05:58:35;101670.38;;;-2.33;89.93
54369;BME280;40266;52.434;17.056;2023-01-28T06:01:18;101672.33;;;-2.31;89.79
54369;BME280;40266;52.434;17.056;2023-01-28T06:04:05;101680.69;;;-2.32;89.33
54369;BME280;40266;52.434;17.056;2023-01-28T06:06:48;101686.95;;;-2.34;89.16
54369;BME280;40266;52.434;17.056;2023-01-28T06:09:31;101684.58;;;-2.33;89.32
54369;BME280;40266;52.434;17.056;2023-01-28T06:12:14;101681.70;;;-2.32;89.27
54369;BME280;40266;52.434;17.056;2023-01-28T06:15:16;101685.33;;;-2.32;88.97
54369;BME280;40266;52.434;17.056;2023-01-28T06:18:17;101689.23;;;-2.33;88.80
54369;BME280;40266;52.434;17.056;2023-01-28T06:21:00;101688.98;;;-2.34;88.59
54369;BME280;40266;52.434;17.056;2023-01-28T06:23:43;101691.55;;;-2.34;88.72
54369;BME280;40266;52.434;17.056;2023-01-28T06:26:25;101697.21;;;-2.34;88.47
54369;BME280;40266;52.434;17.056;2023-01-28T06:29:08;101696.83;;;-2.35;88.47
54369;BME280;40266;52.434;17.056;2023-01-28T06:31:52;101698.37;;;-2.35;88.50
54369;BME280;40266;52.434;17.056;2023-01-28T06:34:35;101697.61;;;-2.36;88.62
54369;BME280;40266;52.434;17.056;2023-01-28T06:37:18;101702.20;;;-2.36;88.38
54369;BME280;40266;52.434;17.056;2023-01-28T06:40:02;101697.88;;;-2.37;88.02
54369;BME280;40266;52.434;17.056;2023-01-28T06:42:46;101703.31;;;-2.38;88.09
54369;BME280;40266;52.434;17.056;2023-01-28T06:45:31;101705.05;;;-2.38;88.20
54369;BME280;40266;52.434;17.056;2023-01-28T06:48:14;101710.39;;;-2.37;87.99
54369;BME280;40266;52.434;17.056;2023-01-28T06:50:57;101705.60;;;-2.37;87.91
54369;BME280;40266;52.434;17.056;2023-01-28T06:53:39;101707.14;;;-2.37;88.00
54369;BME280;40266;52.434;17.056;2023-01-28T06:56:23;101708.85;;;-2.37;88.04
54369;BME280;40266;52.434;17.056;2023-01-28T06:59:06;101712.59;;;-2.37;87.56
54369;BME280;40266;52.434;17.056;2023-01-28T07:01:49;101715.19;;;-2.37;87.71
54369;BME280;40266;52.434;17.056;2023-01-28T07:04:32;101715.20;;;-2.37;87.53
54369;BME280;40266;52.434;17.056;2023-01-28T07:07:15;101720.59;;;-2.35;87.73
54369;BME280;40266;52.434;17.056;2023-01-28T07:09:57;101727.30;;;-2.34;87.49
54369;BME280;40266;52.434;17.056;2023-01-28T07:12:40;101723.36;;;-2.34;87.19
54369;BME280;40266;52.434;17.056;2023-01-28T07:15:23;101726.20;;;-2.36;87.02
54369;BME280;40266;52.434;17.056;2023-01-28T07:18:06;101725.16;;;-2.36;87.03
54369;BME280;40266;52.434;17.056;2023-01-28T07:20:49;101723.69;;;-2.35;87.20
54369;BME280;40266;52.434;17.056;2023-01-28T07:23:31;101725.39;;;-2.31;87.40
54369;BME280;40266;52.434;17.056;2023-01-28T07:26:14;101723.23;;;-2.30;87.15
54369;BME280;40266;52.434;17.056;2023-01-28T07:28:57;101723.28;;;-2.29;87.20
54369;BME280;40266;52.434;17.056;2023-01-28T07:31:40;101723.25;;;-2.26;87.29
54369;BME280;40266;52.434;17.056;2023-01-28T07:34:24;101720.64;;;-2.23;87.39
54369;BME280;40266;52.434;17.056;2023-01-28T07:37:08;101723.55;;;-2.20;87.33
54369;BME280;40266;52.434;17.056;2023-01-28T07:39:51;101724.08;;;-2.17;87.30
54369;BME280;40266;52.434;17.056;2023-01-28T07:42:33;101719.83;;;-2.13;87.30
54369;BME280;40266;52.434;17.056;2023-01-28T07:45:20;101721.44;;;-2.08;87.24
54369;BME280;40266;52.434;17.056;2023-01-28T07:48:03;101722.69;;;-2.04;87.36
54369;BME280;40266;52.434;17.056;2023-01-28T07:50:47;101719.11;;;-2.00;87.23
54369;BME280;40266;52.434;17.056;2023-01-28T07:53:31;101721.02;;;-1.96;87.05
54369;BME280;40266;52.434;17.056;2023-01-28T07:56:14;101718.95;;;-1.93;86.88
54369;BME280;40266;52.434;17.056;2023-01-28T07:58:57;101720.91;;;-1.91;86.46
54369;BME280;40266;52.434;17.056;2023-01-28T08:01:40;101718.94;;;-1.90;86.28
54369;BME280;40266;52.434;17.056;2023-01-28T08:04:23;101717.20;;;-1.87;86.31
54369;BME280;40266;52.434;17.056;2023-01-28T08:07:06;101716.87;;;-1.83;86.29
54369;BME280;40266;52.434;17.056;2023-01-28T08:09:50;101714.00;;;-1.79;86.32
54369;BME280;40266;52.434;17.056;2023-01-28T08:12:33;101714.89;;;-1.74;86.33
54369;BME280;40266;52.434;17.056;2023-01-28T08:15:17;101715.13;;;-1.70;86.19
54369;BME280;40266;52.434;17.056;2023-01-28T08:18:00;101713.26;;;-1.66;86.00
54369;BME280;40266;52.434;17.056;2023-01-28T08:20:43;101711.22;;;-1.62;85.96
54369;BME280;40266;52.434;17.056;2023-01-28T08:23:27;101710.84;;;-1.59;85.64
54369;BME280;40266;52.434;17.056;2023-01-28T08:26:10;101717.58;;;-1.55;85.84
54369;BME280;40266;52.434;17.056;2023-01-28T08:28:53;101710.75;;;-1.51;85.82
54369;BME280;40266;52.434;17.056;2023-01-28T08:31:36;101711.11;;;-1.46;85.88
54369;BME280;40266;52.434;17.056;2023-01-28T08:34:19;101711.13;;;-1.42;85.37
54369;BME280;40266;52.434;17.056;2023-01-28T08:37:02;101715.04;;;-1.40;85.19
54369;BME280;40266;52.434;17.056;2023-01-28T08:39:47;101713.06;;;-1.38;84.92
54369;BME280;40266;52.434;17.056;2023-01-28T08:42:30;101713.95;;;-1.37;84.86
54369;BME280;40266;52.434;17.056;2023-01-28T08:45:13;101711.86;;;-1.34;84.55
54369;BME280;40266;52.434;17.056;2023-01-28T08:47:56;101714.77;;;-1.31;84.80
54369;BME280;40266;52.434;17.056;2023-01-28T08:50:40;101720.41;;;-1.27;84.41
54369;BME280;40266;52.434;17.056;2023-01-28T08:53:22;101713.73;;;-1.23;84.61
54369;BME280;40266;52.434;17.056;2023-01-28T08:56:06;101712.90;;;-1.20;84.05
54369;BME280;40266;52.434;17.056;2023-01-28T08:58:49;101720.68;;;-1.18;84.28
54369;BME280;40266;52.434;17.056;2023-01-28T09:01:31;101725.42;;;-1.12;84.36
54369;BME280;40266;52.434;17.056;2023-01-28T09:04:15;101721.88;;;-1.07;84.36
54369;BME280;40266;52.434;17.056;2023-01-28T09:06:58;101724.30;;;-1.03;83.82
54369;BME280;40266;52.434;17.056;2023-01-28T09:09:42;101725.05;;;-1.01;83.41
54369;BME280;40266;52.434;17.056;2023-01-28T09:12:25;101723.02;;;-0.97;83.83
54369;BME280;40266;52.434;17.056;2023-01-28T09:15:10;101724.70;;;-0.91;83.72
54369;BME280;40266;52.434;17.056;2023-01-28T09:17:57;101731.13;;;-0.85;83.64
54369;BME280;40266;52.434;17.056;2023-01-28T09:20:40;101732.13;;;-0.82;83.52
54369;BME280;40266;52.434;17.056;2023-01-28T09:23:24;101731.77;;;-0.78;83.53
54369;BME280;40266;52.434;17.056;2023-01-28T09:26:06;101725.52;;;-0.73;83.67
54369;BME280;40266;52.434;17.056;2023-01-28T09:28:50;101720.76;;;-0.68;83.45
54369;BME280;40266;52.434;17.056;2023-01-28T09:31:33;101733.80;;;-0.64;83.23
54369;BME280;40266;52.434;17.056;2023-01-28T09:34:16;101729.80;;;-0.61;82.85
54369;BME280;40266;52.434;17.056;2023-01-28T09:36:59;101725.91;;;-0.60;82.49
54369;BME280;40266;52.434;17.056;2023-01-28T09:39:42;101723.73;;;-0.59;82.70
54369;BME280;40266;52.434;17.056;2023-01-28T09:42:54;101719.39;;;-0.56;82.34
54369;BME280;40266;52.434;17.056;2023-01-28T09:45:51;101718.71;;;-0.52;82.38
54369;BME280;40266;52.434;17.056;2023-01-28T09:48:54;101717.73;;;-0.47;82.58
54369;BME280;40266;52.434;17.056;2023-01-28T09:51:42;101718.89;;;-0.44;81.87
54369;BME280;40266;52.434;17.056;2023-01-28T09:57:20;101718.04;;;-0.36;81.90
54369;BME280;40266;52.434;17.056;2023-01-28T10:00:13;101717.17;;;-0.33;81.85
54369;BME280;40266;52.434;17.056;2023-01-28T10:08:59;101724.97;;;-0.27;81.41
54369;BME280;40266;52.434;17.056;2023-01-28T10:12:07;101729.09;;;-0.23;81.48
54369;BME280;40266;52.434;17.056;2023-01-28T10:18:00;101730.23;;;-0.16;81.59
54369;BME280;40266;52.434;17.056;2023-01-28T10:21:04;101735.02;;;-0.13;81.44
54369;BME280;40266;52.434;17.056;2023-01-28T10:24:14;101732.20;;;-0.10;81.39
54369;BME280;40266;52.434;17.056;2023-01-28T10:27:02;101733.98;;;-0.09;81.44
54369;BME280;40266;52.434;17.056;2023-01-28T10:29:47;101737.02;;;-0.06;81.26
54369;BME280;40266;52.434;17.056;2023-01-28T10:32:33;101733.38;;;-0.07;80.87
54369;BME280;40266;52.434;17.056;2023-01-28T10:35:20;101737.45;;;-0.08;80.78
54369;BME280;40266;52.434;17.056;2023-01-28T10:38:05;101743.71;;;-0.06;80.83
54369;BME280;40266;52.434;17.056;2023-01-28T10:40:50;101746.70;;;-0.05;80.95
54369;BME280;40266;52.434;17.056;2023-01-28T10:43:36;101743.58;;;-0.06;80.65
54369;BME280;40266;52.434;17.056;2023-01-28T10:46:32;101752.30;;;-0.06;81.15
54369;BME280;40266;52.434;17.056;2023-01-28T10:49:23;101753.26;;;-0.12;80.47
54369;BME280;40266;52.434;17.056;2023-01-28T10:52:10;101743.79;;;-0.20;80.28
54369;BME280;40266;52.434;17.056;2023-01-28T10:55:03;101739.69;;;-0.24;80.68
54369;BME280;40266;52.434;17.056;2023-01-28T10:57:47;101738.88;;;-0.23;80.66
54369;BME280;40266;52.434;17.056;2023-01-28T11:00:35;101741.64;;;-0.23;80.99
54369;BME280;40266;52.434;17.056;2023-01-28T11:03:19;101739.34;;;-0.20;81.42
54369;BME280;40266;52.434;17.056;2023-01-28T11:06:02;101739.27;;;-0.18;81.43
54369;BME280;40266;52.434;17.056;2023-01-28T11:08:45;101738.55;;;-0.15;81.40
54369;BME280;40266;52.434;17.056;2023-01-28T11:11:28;101745.09;;;-0.10;81.43
54369;BME280;40266;52.434;17.056;2023-01-28T11:14:19;101742.31;;;-0.07;81.21
54369;BME280;40266;52.434;17.056;2023-01-28T11:17:02;101745.43;;;-0.06;81.08
54369;BME280;40266;52.434;17.056;2023-01-28T11:19:45;101746.04;;;-0.04;81.24
54369;BME280;40266;52.434;17.056;2023-01-28T11:22:42;101741.23;;;-0.00;81.15
54369;BME280;40266;52.434;17.056;2023-01-28T11:25:33;101732.05;;;0.03;81.32
54369;BME280;40266;52.434;17.056;2023-01-28T11:28:20;101732.66;;;0.08;81.63
54369;BME280;40266;52.434;17.056;2023-01-28T11:31:04;101733.35;;;0.13;81.30
54369;BME280;40266;52.434;17.056;2023-01-28T11:34:05;101729.37;;;0.12;81.05
54369;BME280;40266;52.434;17.056;2023-01-28T11:36:53;101723.20;;;0.12;81.21
54369;BME280;40266;52.434;17.056;2023-01-28T11:39:37;101720.55;;;0.15;81.19
54369;BME280;40266;52.434;17.056;2023-01-28T11:42:20;101724.52;;;0.15;80.97
54369;BME280;40266;52.434;17.056;2023-01-28T11:45:11;101724.25;;;0.12;80.50
54369;BME280;40266;52.434;17.056;2023-01-28T11:53:41;101719.42;;;0.16;81.08
54369;BME280;40266;52.434;17.056;2023-01-28T12:03:19;101713.25;;;0.21;81.22
54369;BME280;40266;52.434;17.056;2023-01-28T12:06:04;101707.39;;;0.25;81.05
54369;BME280;40266;52.434;17.056;2023-01-28T12:09:02;101709.95;;;0.25;81.06
54369;BME280;40266;52.434;17.056;2023-01-28T12:12:10;101704.99;;;0.21;80.98
54369;BME280;40266;52.434;17.056;2023-01-28T12:21:03;101690.39;;;0.16;80.59
54369;BME280;40266;52.434;17.056;2023-01-28T12:26:45;101690.21;;;0.08;80.79
54369;BME280;40266;52.434;17.056;2023-01-28T12:29:42;101685.55;;;0.08;80.78
54369;BME280;40266;52.434;17.056;2023-01-28T12:33:02;101680.01;;;0.06;81.04
54369;BME280;40266;52.434;17.056;2023-01-28T12:41:28;101675.77;;;0.04;80.81
54369;BME280;40266;52.434;17.056;2023-01-28T12:44:26;101676.27;;;0.03;80.71
54369;BME280;40266;52.434;17.056;2023-01-28T12:47:19;101681.43;;;0.03;80.58
54369;BME280;40266;52.434;17.056;2023-01-28T12:50:19;101685.33;;;0.02;80.55
54369;BME280;40266;52.434;17.056;2023-01-28T12:53:29;101690.66;;;-0.02;79.94
54369;BME280;40266;52.434;17.056;2023-01-28T12:56:21;101691.36;;;-0.06;79.95
54369;BME280;40266;52.434;17.056;2023-01-28T12:59:15;101693.13;;;-0.08;79.85
54369;BME280;40266;52.434;17.056;2023-01-28T13:05:25;101698.42;;;-0.17;78.72
54369;BME280;40266;52.434;17.056;2023-01-28T13:08:36;101700.93;;;-0.23;79.09
54369;BME280;40266;52.434;17.056;2023-01-28T13:11:19;101705.21;;;-0.27;78.43
54369;BME280;40266;52.434;17.056;2023-01-28T13:14:03;101706.02;;;-0.33;78.83
54369;BME280;40266;52.434;17.056;2023-01-28T13:16:47;101711.08;;;-0.34;79.02
54369;BME280;40266;52.434;17.056;2023-01-28T13:19:37;101706.45;;;-0.38;78.85
54369;BME280;40266;52.434;17.056;2023-01-28T13:22:27;101710.45;;;-0.45;78.35
54369;BME280;40266;52.434;17.056;2023-01-28T13:25:25;101708.48;;;-0.51;78.68
54369;BME280;40266;52.434;17.056;2023-01-28T13:28:24;101711.17;;;-0.52;78.78
54369;BME280;40266;52.434;17.056;2023-01-28T13:31:10;101714.73;;;-0.53;79.07
54369;BME280;40266;52.434;17.056;2023-01-28T13:34:02;101713.31;;;-0.54;78.79
54369;BME280;40266;52.434;17.056;2023-01-28T13:36:46;101718.36;;;-0.56;78.76
54369;BME280;40266;52.434;17.056;2023-01-28T13:39:32;101716.89;;;-0.58;78.33
54369;BME280;40266;52.434;17.056;2023-01-28T13:42:27;101714.98;;;-0.63;77.62
54369;BME280;40266;52.434;17.056;2023-01-28T13:48:13;101720.11;;;-0.67;77.64
54369;BME280;40266;52.434;17.056;2023-01-28T13:51:01;101720.64;;;-0.71;77.12
54369;BME280;40266;52.434;17.056;2023-01-28T13:53:58;101714.32;;;-0.74;76.84
54369;BME280;40266;52.434;17.056;2023-01-28T14:20:33;101720.84;;;-0.78;76.70
54369;BME280;40266;52.434;17.056;2023-01-28T14:23:20;101713.54;;;-0.76;76.68
54369;BME280;40266;52.434;17.056;2023-01-28T14:29:34;101718.34;;;-0.72;77.23
54369;BME280;40266;52.434;17.056;2023-01-28T14:32:24;101711.77;;;-0.70;76.28
54369;BME280;40266;52.434;17.056;2023-01-28T14:35:08;101706.85;;;-0.68;76.62
54369;BME280;40266;52.434;17.056;2023-01-28T14:37:51;101702.98;;;-0.67;77.08
54369;BME280;40266;52.434;17.056;2023-01-28T14:40:38;101704.08;;;-0.65;76.94
54369;BME280;40266;52.434;17.056;2023-01-28T14:43:24;101702.75;;;-0.64;76.98
54369;BME280;40266;52.434;17.056;2023-01-28T14:55:35;101692.44;;;-0.72;76.52
54369;BME280;40266;52.434;17.056;2023-01-28T14:58:32;101700.89;;;-0.75;76.40
54369;BME280;40266;52.434;17.056;2023-01-28T15:01:20;101688.40;;;-0.78;76.52
54369;BME280;40266;52.434;17.056;2023-01-28T15:04:04;101679.60;;;-0.79;76.98
54369;BME280;40266;52.434;17.056;2023-01-28T15:06:47;101681.77;;;-0.81;76.77
54369;BME280;40266;52.434;17.056;2023-01-28T15:09:30;101688.91;;;-0.82;77.38
54369;BME280;40266;52.434;17.056;2023-01-28T15:12:13;101685.67;;;-0.85;77.08
54369;BME280;40266;52.434;17.056;2023-01-28T15:14:57;101682.32;;;-0.87;77.36
54369;BME280;40266;52.434;17.056;2023-01-28T15:17:41;101680.79;;;-0.91;76.95
54369;BME280;40266;52.434;17.056;2023-01-28T15:20:24;101682.52;;;-0.94;76.89
54369;BME280;40266;52.434;17.056;2023-01-28T15:23:07;101676.61;;;-0.96;77.05
54369;BME280;40266;52.434;17.056;2023-01-28T15:25:50;101674.05;;;-0.96;77.28
54369;BME280;40266;52.434;17.056;2023-01-28T15:28:34;101682.65;;;-0.95;77.73
54369;BME280;40266;52.434;17.056;2023-01-28T15:34:17;101686.58;;;-0.96;77.88
54369;BME280;40266;52.434;17.056;2023-01-28T15:37:00;101676.65;;;-0.99;77.63
54369;BME280;40266;52.434;17.056;2023-01-28T15:39:43;101667.84;;;-1.00;77.62
54369;BME280;40266;52.434;17.056;2023-01-28T15:42:27;101670.35;;;-1.01;77.66
54369;BME280;40266;52.434;17.056;2023-01-28T15:45:19;101664.34;;;-1.02;77.73
54369;BME280;40266;52.434;17.056;2023-01-28T15:48:04;101660.71;;;-1.02;77.73
54369;BME280;40266;52.434;17.056;2023-01-28T15:51:00;101663.96;;;-1.02;78.05
54369;BME280;40266;52.434;17.056;2023-01-28T15:53:45;101674.08;;;-1.03;77.90
54369;BME280;40266;52.434;17.056;2023-01-28T15:56:29;101667.56;;;-1.07;77.42
54369;BME280;40266;52.434;17.056;2023-01-28T15:59:25;101670.52;;;-1.10;77.45
54369;BME280;40266;52.434;17.056;2023-01-28T16:02:23;101666.48;;;-1.12;77.51
54369;BME280;40266;52.434;17.056;2023-01-28T16:05:06;101660.29;;;-1.12;77.75
54369;BME280;40266;52.434;17.056;2023-01-28T16:07:54;101663.48;;;-1.13;77.75
54369;BME280;40266;52.434;17.056;2023-01-28T16:10:38;101667.57;;;-1.14;77.84
54369;BME280;40266;52.434;17.056;2023-01-28T16:13:23;101670.89;;;-1.16;77.73
54369;BME280;40266;52.434;17.056;2023-01-28T16:16:07;101672.21;;;-1.17;78.05
54369;BME280;40266;52.434;17.056;2023-01-28T16:18:52;101667.35;;;-1.18;77.95
54369;BME280;40266;52.434;17.056;2023-01-28T16:21:42;101666.63;;;-1.19;77.94
54369;BME280;40266;52.434;17.056;2023-01-28T16:24:29;101664.92;;;-1.19;78.21
54369;BME280;40266;52.434;17.056;2023-01-28T16:27:25;101664.41;;;-1.19;78.12
54369;BME280;40266;52.434;17.056;2023-01-28T16:30:10;101673.10;;;-1.20;78.15
54369;BME280;40266;52.434;17.056;2023-01-28T16:32:54;101673.69;;;-1.19;78.63
54369;BME280;40266;52.434;17.056;2023-01-28T16:35:37;101676.23;;;-1.19;78.44
54369;BME280;40266;52.434;17.056;2023-01-28T16:38:40;101673.85;;;-1.22;78.41
54369;BME280;40266;52.434;17.056;2023-01-28T16:41:26;101673.13;;;-1.23;78.13
54369;BME280;40266;52.434;17.056;2023-01-28T16:44:13;101676.04;;;-1.23;78.66
54369;BME280;40266;52.434;17.056;2023-01-28T16:46:56;101679.86;;;-1.22;78.90
54369;BME280;40266;52.434;17.056;2023-01-28T16:49:38;101687.11;;;-1.21;79.00
54369;BME280;40266;52.434;17.056;2023-01-28T16:52:21;101699.65;;;-1.21;78.86
54369;BME280;40266;52.434;17.056;2023-01-28T16:55:04;101706.83;;;-1.21;79.04
54369;BME280;40266;52.434;17.056;2023-01-28T16:57:49;101704.17;;;-1.23;79.03
54369;BME280;40266;52.434;17.056;2023-01-28T17:00:34;101710.08;;;-1.24;79.37
54369;BME280;40266;52.434;17.056;2023-01-28T17:03:19;101715.52;;;-1.26;79.50
54369;BME280;40266;52.434;17.056;2023-01-28T17:06:02;101716.04;;;-1.26;79.60
54369;BME280;40266;52.434;17.056;2023-01-28T17:08:45;101717.95;;;-1.25;79.76